Time;durP1;ratioP1;P1;durP2;ratioP2;P2;SDS_P1;SDS_P2;PMS_P1;PMS_P2;Temp;Humidity;BMP_temperature;BMP_pressure;BME280_temperature;BME280_humidity;BME280_pressure;Samples;Min_cycle;Max_cycle;Signal;HPM_P1;HPM_P2
2021/09/24 00:01:26;;;;;;;18.35;4.88;;;;;;;;;;4960580;28;20037;-77
2021/09/24 00:03:53;;;;;;;19.60;4.40;;;;;;;;;;4964667;28;20025;-77
2021/09/24 00:06:19;;;;;;;22.55;4.93;;;;;;;;;;4961455;28;20038;-77
2021/09/24 00:08:45;;;;;;;22.95;4.97;;;;;;;;;;4959813;28;20053;-78
2021/09/24 00:11:11;;;;;;;22.75;4.95;;;;;;;;;;4972005;28;20042;-75
2021/09/24 00:13:40;;;;;;;20.75;4.45;;;;;;;;;;4960540;28;20033;-77
2021/09/24 00:16:06;;;;;;;18.23;5.10;;;;;;;;;;4953475;28;20058;-76
2021/09/24 00:18:32;;;;;;;20.08;4.80;;;;;;;;;;4962697;28;20026;-77
2021/09/24 00:20:58;;;;;;;24.77;5.43;;;;;;;;;;4963650;28;20034;-77
2021/09/24 00:23:25;;;;;;;21.77;5.40;;;;;;;;;;4974450;28;20150;-77
2021/09/24 00:25:51;;;;;;;21.33;4.90;;;;;;;;;;4961474;28;20078;-77
2021/09/24 00:28:17;;;;;;;19.52;4.35;;;;;;;;;;4957730;28;20042;-76
2021/09/24 00:30:43;;;;;;;19.67;5.32;;;;;;;;;;4960703;28;20029;-76
2021/09/24 00:33:09;;;;;;;23.92;5.57;;;;;;;;;;4959915;28;20672;-76
2021/09/24 00:35:35;;;;;;;21.38;5.28;;;;;;;;;;4958340;28;20502;-76
2021/09/24 00:38:02;;;;;;;18.30;4.20;;;;;;;;;;4956802;28;20170;-76
2021/09/24 00:40:31;;;;;;;22.15;5.00;;;;;;;;;;4958954;28;20393;-76
2021/09/24 00:42:58;;;;;;;22.60;5.05;;;;;;;;;;4973896;28;20490;-76
2021/09/24 00:45:24;;;;;;;29.02;5.05;;;;;;;;;;4954434;28;20033;-75
2021/09/24 00:47:51;;;;;;;19.70;5.00;;;;;;;;;;4959969;28;20027;-75
2021/09/24 00:50:17;;;;;;;18.80;4.82;;;;;;;;;;4953937;28;20031;-75
2021/09/24 00:52:43;;;;;;;18.20;4.30;;;;;;;;;;4956310;28;20404;-75
2021/09/24 00:55:10;;;;;;;17.02;3.97;;;;;;;;;;4956093;28;20031;-75
2021/09/24 00:57:37;;;;;;;19.00;4.38;;;;;;;;;;4959306;28;20436;-75
2021/09/24 01:00:04;;;;;;;16.27;3.97;;;;;;;;;;4951721;28;20634;-75
2021/09/24 01:02:30;;;;;;;17.35;4.25;;;;;;;;;;4958996;28;20583;-76
2021/09/24 01:04:57;;;;;;;17.30;3.80;;;;;;;;;;4954083;28;20511;-76
2021/09/24 01:07:24;;;;;;;17.65;4.00;;;;;;;;;;4955824;28;20047;-75
2021/09/24 01:16:27;;;;;;;14.98;4.30;;;;;;;;;;4957588;28;20129;-75
2021/09/24 01:18:53;;;;;;;19.20;4.18;;;;;;;;;;4966357;28;20066;-75
2021/09/24 01:21:19;;;;;;;14.88;3.80;;;;;;;;;;4959767;28;20168;-76
2021/09/24 01:23:45;;;;;;;15.57;3.53;;;;;;;;;;4974022;28;20046;-75
2021/09/24 01:26:12;;;;;;;22.27;4.07;;;;;;;;;;4943151;28;20043;-77
2021/09/24 01:28:38;;;;;;;18.35;3.50;;;;;;;;;;4945984;28;20059;-75
2021/09/24 01:31:05;;;;;;;16.38;4.00;;;;;;;;;;4952911;28;20473;-75
2021/09/24 01:33:31;;;;;;;19.20;4.05;;;;;;;;;;4945473;28;20366;-75
2021/09/24 01:35:58;;;;;;;19.33;3.88;;;;;;;;;;4944118;28;20504;-75
2021/09/24 01:38:24;;;;;;;20.08;4.00;;;;;;;;;;4955389;28;20189;-74
2021/09/24 01:40:50;;;;;;;18.42;3.88;;;;;;;;;;4951844;28;21500;-75
2021/09/24 01:43:16;;;;;;;21.83;4.35;;;;;;;;;;4958937;28;20042;-75
2021/09/24 01:45:43;;;;;;;14.77;3.90;;;;;;;;;;4958829;28;20026;-76
2021/09/24 01:48:09;;;;;;;17.52;3.95;;;;;;;;;;4960744;28;20037;-75
2021/09/24 01:50:35;;;;;;;15.02;3.80;;;;;;;;;;4961337;28;20042;-75
2021/09/24 01:53:01;;;;;;;24.17;4.25;;;;;;;;;;4961636;28;20043;-76
2021/09/24 01:55:27;;;;;;;13.32;3.30;;;;;;;;;;4961014;28;20152;-75
2021/09/24 01:57:53;;;;;;;15.75;3.50;;;;;;;;;;4960752;28;20039;-75
2021/09/24 02:00:20;;;;;;;15.07;3.60;;;;;;;;;;4974919;28;20133;-75
2021/09/24 02:02:46;;;;;;;14.18;3.50;;;;;;;;;;4962259;28;20034;-75
2021/09/24 02:05:12;;;;;;;18.45;3.83;;;;;;;;;;4958996;28;20034;-75
2021/09/24 02:07:38;;;;;;;17.67;4.03;;;;;;;;;;4960579;28;20042;-75
2021/09/24 02:10:05;;;;;;;17.27;3.70;;;;;;;;;;4953889;28;20616;-75
2021/09/24 02:12:32;;;;;;;15.93;4.00;;;;;;;;;;4977012;28;20057;-75
2021/09/24 02:14:58;;;;;;;15.80;3.42;;;;;;;;;;4963339;28;20482;-75
2021/09/24 02:17:24;;;;;;;16.15;3.30;;;;;;;;;;4957518;28;20039;-75
2021/09/24 02:19:50;;;;;;;14.98;4.00;;;;;;;;;;4959999;28;20526;-75
2021/09/24 02:22:16;;;;;;;16.42;3.67;;;;;;;;;;4957648;28;20508;-75
2021/09/24 02:24:42;;;;;;;17.38;3.70;;;;;;;;;;4973344;28;20038;-75
2021/09/24 02:27:09;;;;;;;16.55;3.80;;;;;;;;;;4957980;28;20081;-75
2021/09/24 02:29:35;;;;;;;16.92;3.85;;;;;;;;;;4961848;28;20042;-75
2021/09/24 02:32:01;;;;;;;16.95;3.80;;;;;;;;;;4959191;28;20030;-75
2021/09/24 02:34:27;;;;;;;17.48;3.88;;;;;;;;;;4960540;28;20078;-75
2021/09/24 02:36:54;;;;;;;17.48;3.78;;;;;;;;;;4976278;28;20030;-75
2021/09/24 02:39:20;;;;;;;18.38;3.60;;;;;;;;;;4958363;28;20026;-75
2021/09/24 02:41:46;;;;;;;14.63;3.40;;;;;;;;;;4961663;28;20041;-75
2021/09/24 02:44:13;;;;;;;13.57;3.28;;;;;;;;;;4956303;28;20035;-76
2021/09/24 02:46:39;;;;;;;13.57;3.92;;;;;;;;;;4959458;28;20097;-76
2021/09/24 02:49:05;;;;;;;11.45;3.50;;;;;;;;;;4964790;28;20054;-75
2021/09/24 02:51:31;;;;;;;14.88;3.60;;;;;;;;;;4964427;28;20034;-75
2021/09/24 02:53:58;;;;;;;12.77;3.55;;;;;;;;;;4960722;28;20065;-74
2021/09/24 02:56:24;;;;;;;16.02;3.45;;;;;;;;;;4953086;28;20042;-75
2021/09/24 02:58:50;;;;;;;14.70;3.53;;;;;;;;;;4957423;28;20027;-77
2021/09/24 03:01:16;;;;;;;16.88;3.70;;;;;;;;;;4970755;28;20049;-75
2021/09/24 03:03:42;;;;;;;14.00;3.45;;;;;;;;;;4962865;28;20035;-75
2021/09/24 03:06:08;;;;;;;16.15;3.83;;;;;;;;;;4957390;28;20057;-74
2021/09/24 03:08:35;;;;;;;14.50;3.42;;;;;;;;;;4961653;28;20034;-75
2021/09/24 03:11:01;;;;;;;14.50;3.85;;;;;;;;;;4961230;28;20133;-75
2021/09/24 03:13:27;;;;;;;15.40;3.63;;;;;;;;;;4973047;28;20034;-76
2021/09/24 03:15:54;;;;;;;13.85;3.80;;;;;;;;;;4958523;28;20038;-76
2021/09/24 03:18:21;;;;;;;12.35;3.25;;;;;;;;;;4958241;28;20034;-76
2021/09/24 03:20:50;;;;;;;18.38;3.47;;;;;;;;;;4959316;28;20042;-75
2021/09/24 03:23:21;;;;;;;13.10;3.60;;;;;;;;;;4954348;28;20706;-75
2021/09/24 03:25:48;;;;;;;17.42;4.07;;;;;;;;;;4961731;28;20097;-75
2021/09/24 03:28:15;;;;;;;18.08;3.83;;;;;;;;;;4956932;28;20034;-75
2021/09/24 03:30:46;;;;;;;14.95;3.40;;;;;;;;;;4928522;28;20035;-76
2021/09/24 03:33:13;;;;;;;13.63;3.63;;;;;;;;;;4971581;28;20423;-76
2021/09/24 03:35:39;;;;;;;12.55;3.10;;;;;;;;;;4959446;28;20074;-75
2021/09/24 03:38:06;;;;;;;11.00;3.35;;;;;;;;;;4953654;28;20122;-75
2021/09/24 03:40:32;;;;;;;14.25;3.35;;;;;;;;;;4976008;28;20049;-76
2021/09/24 03:42:58;;;;;;;12.63;3.22;;;;;;;;;;4954038;28;20038;-76
2021/09/24 03:45:25;;;;;;;13.80;3.60;;;;;;;;;;4954065;28;20233;-76
2021/09/24 03:47:51;;;;;;;13.55;3.83;;;;;;;;;;4975123;28;20552;-76
2021/09/24 03:50:17;;;;;;;13.70;3.33;;;;;;;;;;4956954;28;20102;-76
2021/09/24 03:52:44;;;;;;;13.98;3.13;;;;;;;;;;4960976;28;20027;-76
2021/09/24 03:55:10;;;;;;;12.20;3.17;;;;;;;;;;4956246;28;20089;-76
2021/09/24 03:57:36;;;;;;;12.85;2.97;;;;;;;;;;4959654;28;20034;-76
2021/09/24 04:00:03;;;;;;;14.65;3.22;;;;;;;;;;4955265;28;20054;-77
2021/09/24 04:02:29;;;;;;;10.27;3.22;;;;;;;;;;4960553;28;20042;-77
2021/09/24 04:04:55;;;;;;;14.15;3.20;;;;;;;;;;4963597;28;20034;-76
2021/09/24 04:07:22;;;;;;;12.27;3.10;;;;;;;;;;4954989;28;20054;-75
2021/09/24 04:09:48;;;;;;;13.55;3.72;;;;;;;;;;4957998;28;20037;-78
2021/09/24 04:12:14;;;;;;;11.38;3.10;;;;;;;;;;4956799;28;20925;-77
2021/09/24 04:14:40;;;;;;;15.40;3.30;;;;;;;;;;4958106;28;20117;-75
2021/09/24 04:17:06;;;;;;;13.70;3.17;;;;;;;;;;4956723;28;20151;-76
2021/09/24 04:19:32;;;;;;;12.57;2.90;;;;;;;;;;4956236;28;20046;-75
2021/09/24 04:21:58;;;;;;;11.23;3.05;;;;;;;;;;4959615;28;20058;-75
2021/09/24 04:24:25;;;;;;;13.98;3.20;;;;;;;;;;4956533;28;20644;-76
2021/09/24 04:26:51;;;;;;;14.55;3.60;;;;;;;;;;4958212;28;20110;-76
2021/09/24 04:29:17;;;;;;;12.15;2.92;;;;;;;;;;4951968;28;20084;-76
2021/09/24 04:31:43;;;;;;;15.77;3.00;;;;;;;;;;4969525;28;20065;-76
2021/09/24 04:34:09;;;;;;;14.13;3.17;;;;;;;;;;4954372;28;20470;-76
2021/09/24 04:36:36;;;;;;;15.98;3.58;;;;;;;;;;4958125;28;20085;-76
2021/09/24 04:39:03;;;;;;;13.40;3.05;;;;;;;;;;4956855;28;20050;-78
2021/09/24 04:41:30;;;;;;;17.15;3.40;;;;;;;;;;4959012;28;20039;-78
2021/09/24 04:43:56;;;;;;;15.15;3.15;;;;;;;;;;4959677;28;20034;-77
2021/09/24 04:46:22;;;;;;;11.38;2.88;;;;;;;;;;4955297;28;20168;-77
2021/09/24 04:48:48;;;;;;;13.05;3.00;;;;;;;;;;4965365;28;20114;-77
2021/09/24 04:51:15;;;;;;;13.43;3.10;;;;;;;;;;4958740;28;20440;-75
2021/09/24 04:53:41;;;;;;;10.82;2.72;;;;;;;;;;4977121;28;20511;-76
2021/09/24 04:56:07;;;;;;;13.73;2.90;;;;;;;;;;4957743;28;20038;-76
2021/09/24 04:58:34;;;;;;;15.55;3.42;;;;;;;;;;4961886;28;20065;-76
2021/09/24 05:01:00;;;;;;;13.00;3.20;;;;;;;;;;4963961;28;20096;-75
2021/09/24 05:03:26;;;;;;;12.25;3.00;;;;;;;;;;4959621;28;20113;-76
2021/09/24 05:05:52;;;;;;;15.43;3.05;;;;;;;;;;4958771;28;20042;-76
2021/09/24 05:08:18;;;;;;;13.85;2.83;;;;;;;;;;4956656;28;20038;-76
2021/09/24 05:10:44;;;;;;;12.63;3.10;;;;;;;;;;4962414;28;20070;-76
2021/09/24 05:13:11;;;;;;;11.95;2.80;;;;;;;;;;4975096;28;20030;-76
2021/09/24 05:15:38;;;;;;;13.10;2.88;;;;;;;;;;4975076;28;20027;-76
2021/09/24 05:18:06;;;;;;;17.23;3.38;;;;;;;;;;4960549;28;20482;-76
2021/09/24 05:20:32;;;;;;;13.93;3.50;;;;;;;;;;4964374;28;20117;-77
2021/09/24 05:22:59;;;;;;;12.45;2.80;;;;;;;;;;4962884;28;20026;-76
2021/09/24 05:25:25;;;;;;;13.95;3.35;;;;;;;;;;4958553;28;20050;-76
2021/09/24 05:27:52;;;;;;;14.80;3.42;;;;;;;;;;4963686;28;20038;-76
2021/09/24 05:30:18;;;;;;;12.15;2.90;;;;;;;;;;4958798;28;20026;-77
2021/09/24 05:32:45;;;;;;;12.70;3.30;;;;;;;;;;4979269;28;20030;-77
2021/09/24 05:35:12;;;;;;;15.57;2.80;;;;;;;;;;4957072;28;20034;-77
2021/09/24 05:37:39;;;;;;;14.05;2.80;;;;;;;;;;4961931;28;20038;-77
2021/09/24 05:40:06;;;;;;;11.15;3.20;;;;;;;;;;4956919;28;20034;-77
2021/09/24 05:42:32;;;;;;;13.70;3.00;;;;;;;;;;4978441;28;20026;-76
2021/09/24 05:44:59;;;;;;;12.70;2.92;;;;;;;;;;4961620;28;20125;-76
2021/09/24 05:47:50;;;;;;;14.52;3.33;;;;;;;;;;4946778;28;20057;-77
2021/09/24 05:50:17;;;;;;;12.32;3.05;;;;;;;;;;4960363;28;20156;-77
2021/09/24 05:52:47;;;;;;;12.90;3.00;;;;;;;;;;4980987;28;20452;-77
2021/09/24 05:55:14;;;;;;;13.35;3.35;;;;;;;;;;4973501;28;20471;-77
2021/09/24 05:57:40;;;;;;;14.63;3.55;;;;;;;;;;4959842;28;20038;-76
2021/09/24 06:00:08;;;;;;;14.55;2.85;;;;;;;;;;4975303;28;20524;-75
2021/09/24 06:02:34;;;;;;;14.00;3.25;;;;;;;;;;4976644;28;20603;-77
2021/09/24 06:05:02;;;;;;;13.50;3.00;;;;;;;;;;4977074;28;20069;-75
2021/09/24 06:07:30;;;;;;;16.30;2.95;;;;;;;;;;4961486;28;20050;-76
2021/09/24 06:09:56;;;;;;;12.38;2.42;;;;;;;;;;4963441;28;20041;-76
2021/09/24 06:12:23;;;;;;;11.27;3.00;;;;;;;;;;4975502;28;20125;-76
2021/09/24 06:14:50;;;;;;;14.15;2.80;;;;;;;;;;4961930;28;20042;-76
2021/09/24 06:17:17;;;;;;;12.35;3.30;;;;;;;;;;4956795;28;20042;-76
2021/09/24 06:19:44;;;;;;;11.10;2.65;;;;;;;;;;4958155;28;20061;-76
2021/09/24 06:22:10;;;;;;;14.27;3.05;;;;;;;;;;4960267;28;20813;-77
2021/09/24 06:24:37;;;;;;;14.77;3.13;;;;;;;;;;4964235;28;20030;-76
2021/09/24 06:27:04;;;;;;;15.15;3.25;;;;;;;;;;4957199;28;20670;-75
2021/09/24 06:29:32;;;;;;;17.13;2.90;;;;;;;;;;4960969;28;20130;-75
2021/09/24 06:31:58;;;;;;;13.35;2.92;;;;;;;;;;4957071;28;20070;-75
2021/09/24 06:34:25;;;;;;;13.57;3.42;;;;;;;;;;4955833;28;20049;-76
2021/09/24 06:36:51;;;;;;;16.00;3.60;;;;;;;;;;4978382;28;20559;-75
2021/09/24 06:39:17;;;;;;;17.17;3.20;;;;;;;;;;4971762;28;20031;-77
2021/09/24 06:41:44;;;;;;;16.38;3.28;;;;;;;;;;4972218;28;20048;-76
2021/09/24 06:44:11;;;;;;;15.23;3.15;;;;;;;;;;4955540;28;20038;-77
2021/09/24 06:46:38;;;;;;;13.10;3.03;;;;;;;;;;4976215;28;20775;-77
2021/09/24 06:49:05;;;;;;;12.95;3.13;;;;;;;;;;4956952;28;20153;-77
2021/09/24 06:51:31;;;;;;;13.82;3.22;;;;;;;;;;4959073;28;20031;-77
2021/09/24 06:53:58;;;;;;;18.08;3.80;;;;;;;;;;4970505;28;20046;-77
2021/09/24 06:56:24;;;;;;;12.55;3.17;;;;;;;;;;4968640;28;20124;-77
2021/09/24 06:58:50;;;;;;;13.55;3.40;;;;;;;;;;4964134;28;20042;-77
2021/09/24 07:01:16;;;;;;;11.48;2.97;;;;;;;;;;4969291;28;20049;-77
2021/09/24 07:03:43;;;;;;;18.33;3.42;;;;;;;;;;4974288;28;20116;-77
2021/09/24 07:06:10;;;;;;;16.05;3.20;;;;;;;;;;4955983;28;20141;-78
2021/09/24 07:08:36;;;;;;;17.70;3.35;;;;;;;;;;4958899;28;20042;-78
2021/09/24 07:11:03;;;;;;;13.52;3.47;;;;;;;;;;4957157;28;20129;-78
2021/09/24 07:13:29;;;;;;;15.27;3.30;;;;;;;;;;4956486;28;20569;-77
2021/09/24 07:15:55;;;;;;;16.17;3.38;;;;;;;;;;4958640;28;20127;-77
2021/09/24 07:18:21;;;;;;;16.48;3.40;;;;;;;;;;4956846;28;20034;-76
2021/09/24 07:20:48;;;;;;;16.25;3.30;;;;;;;;;;4977272;28;20042;-75
2021/09/24 07:23:14;;;;;;;13.23;2.67;;;;;;;;;;4953376;28;20062;-76
2021/09/24 07:25:40;;;;;;;11.53;2.53;;;;;;;;;;4972576;28;20657;-78
2021/09/24 07:28:06;;;;;;;15.95;3.22;;;;;;;;;;4952087;28;22096;-78
2021/09/24 07:30:32;;;;;;;14.43;3.53;;;;;;;;;;4962106;28;20026;-78
2021/09/24 07:32:58;;;;;;;13.40;3.45;;;;;;;;;;4959150;28;20089;-78
2021/09/24 07:35:25;;;;;;;13.68;3.20;;;;;;;;;;4955986;28;20034;-77
2021/09/24 07:37:51;;;;;;;14.73;3.53;;;;;;;;;;4977990;28;20038;-77
2021/09/24 07:40:17;;;;;;;14.05;2.90;;;;;;;;;;4958573;28;20041;-77
2021/09/24 07:42:43;;;;;;;14.23;2.97;;;;;;;;;;4958851;28;20028;-77
2021/09/24 07:45:10;;;;;;;12.32;3.65;;;;;;;;;;4961081;28;20022;-77
2021/09/24 07:47:37;;;;;;;16.52;4.93;;;;;;;;;;4957506;28;20492;-77
2021/09/24 07:50:03;;;;;;;15.40;4.90;;;;;;;;;;4973729;28;20034;-77
2021/09/24 07:52:31;;;;;;;14.85;3.80;;;;;;;;;;4960067;28;20116;-77
2021/09/24 07:54:58;;;;;;;15.45;3.67;;;;;;;;;;4958319;28;20030;-76
2021/09/24 07:57:24;;;;;;;17.77;3.97;;;;;;;;;;4958131;28;20030;-77
2021/09/24 07:59:51;;;;;;;16.02;4.38;;;;;;;;;;4961814;28;20039;-77
2021/09/24 08:02:19;;;;;;;15.18;3.83;;;;;;;;;;4954916;28;20084;-76
2021/09/24 08:04:45;;;;;;;16.30;4.30;;;;;;;;;;4972099;28;20042;-77
2021/09/24 08:07:12;;;;;;;13.85;4.00;;;;;;;;;;4957888;28;20050;-77
2021/09/24 08:09:38;;;;;;;17.08;3.97;;;;;;;;;;4961997;28;20023;-77
2021/09/24 08:12:05;;;;;;;15.13;4.85;;;;;;;;;;4958426;28;20034;-77
2021/09/24 08:14:32;;;;;;;17.23;5.40;;;;;;;;;;4962402;28;20492;-77
2021/09/24 08:16:59;;;;;;;17.27;4.00;;;;;;;;;;4956007;28;20042;-76
2021/09/24 08:19:26;;;;;;;17.75;4.10;;;;;;;;;;4972380;28;20035;-76
2021/09/24 08:21:52;;;;;;;12.45;3.13;;;;;;;;;;4959037;28;20026;-76
2021/09/24 08:24:24;;;;;;;15.98;3.70;;;;;;;;;;4957616;28;20045;-79
2021/09/24 08:26:50;;;;;;;14.52;3.53;;;;;;;;;;4953995;28;20216;-76
2021/09/24 08:29:17;;;;;;;12.55;3.45;;;;;;;;;;4969463;28;20133;-76
2021/09/24 08:31:43;;;;;;;14.45;3.60;;;;;;;;;;4963374;28;20027;-75
2021/09/24 08:34:10;;;;;;;16.00;4.28;;;;;;;;;;4958144;28;20038;-76
2021/09/24 08:36:36;;;;;;;14.30;3.80;;;;;;;;;;4960998;28;20034;-76
2021/09/24 08:39:07;;;;;;;16.40;4.18;;;;;;;;;;4939971;28;20038;-76
2021/09/24 08:41:33;;;;;;;15.43;4.53;;;;;;;;;;4941801;28;20085;-76
2021/09/24 08:44:00;;;;;;;19.40;4.47;;;;;;;;;;4965044;28;20118;-76
2021/09/24 08:46:27;;;;;;;16.67;4.63;;;;;;;;;;4955031;28;20066;-76
2021/09/24 08:48:53;;;;;;;18.33;5.03;;;;;;;;;;4961007;28;20058;-76
2021/09/24 08:51:20;;;;;;;16.52;5.00;;;;;;;;;;4967694;28;20045;-76
2021/09/24 08:53:48;;;;;;;17.23;4.50;;;;;;;;;;4958355;28;20777;-76
2021/09/24 08:56:15;;;;;;;15.30;4.63;;;;;;;;;;4952817;28;20082;-77
2021/09/24 08:58:42;;;;;;;19.85;4.93;;;;;;;;;;4960166;28;20043;-76
2021/09/24 09:01:08;;;;;;;16.88;5.57;;;;;;;;;;4938363;28;20599;-76
2021/09/24 09:03:38;;;;;;;20.98;5.70;;;;;;;;;;4977181;28;20026;-76
2021/09/24 09:06:05;;;;;;;16.60;5.25;;;;;;;;;;4948508;28;20065;-77
2021/09/24 09:08:32;;;;;;;18.92;5.97;;;;;;;;;;4973897;28;20039;-76
2021/09/24 09:11:02;;;;;;;18.88;6.30;;;;;;;;;;4960700;28;20030;-77
2021/09/24 09:13:31;;;;;;;20.98;6.18;;;;;;;;;;4956453;28;20038;-77
2021/09/24 09:16:00;;;;;;;20.27;6.47;;;;;;;;;;4964853;28;20018;-77
2021/09/24 09:18:27;;;;;;;16.95;5.13;;;;;;;;;;4961976;28;20030;-77
2021/09/24 09:20:53;;;;;;;22.38;5.70;;;;;;;;;;4972279;28;20688;-76
2021/09/24 09:23:21;;;;;;;26.50;7.78;;;;;;;;;;4955215;28;20117;-76
2021/09/24 09:25:49;;;;;;;18.58;5.90;;;;;;;;;;4956261;28;20042;-77
2021/09/24 09:28:17;;;;;;;23.92;6.63;;;;;;;;;;4964672;28;20156;-77
2021/09/24 09:30:44;;;;;;;23.40;6.60;;;;;;;;;;4955514;28;20169;-77
2021/09/24 09:33:15;;;;;;;21.33;5.20;;;;;;;;;;4957625;28;20023;-77
2021/09/24 09:35:43;;;;;;;28.58;6.55;;;;;;;;;;4961899;28;20042;-77
2021/09/24 09:38:19;;;;;;;21.42;6.38;;;;;;;;;;4957829;28;20038;-78
2021/09/24 09:40:49;;;;;;;25.60;7.50;;;;;;;;;;4957998;28;20030;-77
2021/09/24 09:43:19;;;;;;;24.95;6.20;;;;;;;;;;4955588;28;20042;-77
2021/09/24 09:45:45;;;;;;;25.17;5.82;;;;;;;;;;4960860;28;20022;-77
2021/09/24 09:48:14;;;;;;;19.92;5.20;;;;;;;;;;4959531;28;20045;-77
2021/09/24 09:50:41;;;;;;;16.70;4.32;;;;;;;;;;4962517;28;20697;-77
2021/09/24 09:53:07;;;;;;;21.13;4.65;;;;;;;;;;4971897;28;20161;-77
2021/09/24 09:55:38;;;;;;;24.10;6.20;;;;;;;;;;4975655;28;20046;-76
2021/09/24 09:58:09;;;;;;;18.60;5.15;;;;;;;;;;4958496;28;20042;-77
2021/09/24 10:00:36;;;;;;;26.48;5.90;;;;;;;;;;4956524;28;20989;-76
2021/09/24 10:03:07;;;;;;;25.88;6.38;;;;;;;;;;4959732;28;20058;-76
2021/09/24 10:05:44;;;;;;;26.67;5.80;;;;;;;;;;4961041;28;20435;-77
2021/09/24 10:08:19;;;;;;;22.40;5.43;;;;;;;;;;4953695;28;20058;-77
2021/09/24 10:10:57;;;;;;;23.77;4.95;;;;;;;;;;4961533;28;20054;-77
2021/09/24 10:13:25;;;;;;;20.15;4.85;;;;;;;;;;4972368;28;20038;-77
2021/09/24 10:15:51;;;;;;;26.67;5.20;;;;;;;;;;4953631;28;20514;-77
2021/09/24 10:18:17;;;;;;;19.95;4.72;;;;;;;;;;4972785;28;20041;-77
2021/09/24 10:20:44;;;;;;;17.55;4.40;;;;;;;;;;4974601;28;20038;-77
2021/09/24 10:23:10;;;;;;;24.27;6.43;;;;;;;;;;4957722;28;20076;-77
2021/09/24 10:25:37;;;;;;;22.38;5.07;;;;;;;;;;4961130;28;20045;-77
2021/09/24 10:28:04;;;;;;;25.33;6.40;;;;;;;;;;4958120;28;20042;-77
2021/09/24 10:30:33;;;;;;;21.88;5.13;;;;;;;;;;4957882;28;20104;-76
2021/09/24 10:33:01;;;;;;;22.75;5.47;;;;;;;;;;4959906;28;21174;-76
2021/09/24 10:35:46;;;;;;;20.40;5.25;;;;;;;;;;4941818;28;20050;-77
2021/09/24 10:38:13;;;;;;;18.27;4.57;;;;;;;;;;4955947;28;20037;-76
2021/09/24 10:41:03;;;;;;;18.15;5.00;;;;;;;;;;4972201;28;20487;-77
2021/09/24 10:43:43;;;;;;;25.80;5.68;;;;;;;;;;4958438;28;20065;-76
2021/09/24 10:46:25;;;;;;;22.52;5.60;;;;;;;;;;4973505;28;20046;-77
2021/09/24 10:49:10;;;;;;;24.10;5.22;;;;;;;;;;4962994;28;20242;-76
2021/09/24 10:51:40;;;;;;;25.20;5.40;;;;;;;;;;4974546;28;20066;-77
2021/09/24 10:54:24;;;;;;;24.67;5.78;;;;;;;;;;4958636;28;20144;-77
2021/09/24 10:57:00;;;;;;;21.17;5.32;;;;;;;;;;4960234;28;20030;-77
2021/09/24 10:59:32;;;;;;;17.48;3.97;;;;;;;;;;4970709;28;20138;-78
2021/09/24 11:01:59;;;;;;;22.50;5.15;;;;;;;;;;4962037;28;20135;-78
2021/09/24 11:04:42;;;;;;;22.23;5.85;;;;;;;;;;4957599;28;20515;-78
2021/09/24 11:07:09;;;;;;;19.35;4.50;;;;;;;;;;4959220;28;20050;-78
2021/09/24 11:09:50;;;;;;;28.52;5.82;;;;;;;;;;4975195;28;20113;-77
2021/09/24 11:12:16;;;;;;;19.08;4.80;;;;;;;;;;4957076;28;20130;-77
2021/09/24 11:14:43;;;;;;;21.05;4.93;;;;;;;;;;4953352;28;20047;-77
2021/09/24 11:17:13;;;;;;;23.33;5.88;;;;;;;;;;4969821;28;20062;-77
2021/09/24 11:19:40;;;;;;;27.92;6.15;;;;;;;;;;4959708;28;20046;-77
2021/09/24 11:22:08;;;;;;;26.13;6.35;;;;;;;;;;4954952;28;20062;-77
2021/09/24 11:24:34;;;;;;;20.73;5.18;;;;;;;;;;4979111;28;20026;-77
2021/09/24 11:27:11;;;;;;;24.42;6.03;;;;;;;;;;4977382;28;20034;-77
2021/09/24 11:29:41;;;;;;;24.77;6.43;;;;;;;;;;4978136;28;20042;-76
2021/09/24 11:32:11;;;;;;;28.63;7.10;;;;;;;;;;4958063;28;20034;-77
2021/09/24 11:34:44;;;;;;;22.75;6.78;;;;;;;;;;4974504;28;20709;-77
2021/09/24 11:37:27;;;;;;;26.27;6.85;;;;;;;;;;4968222;28;20053;-78
2021/09/24 11:40:12;;;;;;;21.88;5.72;;;;;;;;;;4957948;28;20054;-76
2021/09/24 11:42:40;;;;;;;23.02;6.75;;;;;;;;;;4970092;28;20096;-76
2021/09/24 11:45:07;;;;;;;27.13;6.40;;;;;;;;;;4935584;28;20024;-77
2021/09/24 11:47:36;;;;;;;21.90;6.07;;;;;;;;;;4941981;28;20066;-77
2021/09/24 11:50:04;;;;;;;24.70;6.20;;;;;;;;;;4937350;28;20045;-77
2021/09/24 11:52:35;;;;;;;22.52;5.05;;;;;;;;;;4941212;28;20027;-77
2021/09/24 11:55:10;;;;;;;22.33;5.38;;;;;;;;;;4937583;28;20046;-78
2021/09/24 11:57:37;;;;;;;24.52;5.90;;;;;;;;;;4954016;28;20049;-78
2021/09/24 12:00:04;;;;;;;21.80;4.65;;;;;;;;;;4954695;28;20105;-78
2021/09/24 12:02:30;;;;;;;24.48;5.50;;;;;;;;;;4970532;28;20042;-78
2021/09/24 12:04:57;;;;;;;24.10;6.15;;;;;;;;;;4949005;28;20066;-78
2021/09/24 12:07:23;;;;;;;19.58;5.22;;;;;;;;;;4935269;28;20054;-78
2021/09/24 12:10:01;;;;;;;20.95;5.28;;;;;;;;;;4940577;28;20038;-78
2021/09/24 12:12:36;;;;;;;19.08;4.95;;;;;;;;;;4938040;28;20047;-79
2021/09/24 12:15:04;;;;;;;20.70;5.43;;;;;;;;;;4937808;28;20158;-77
2021/09/24 12:17:32;;;;;;;21.80;5.47;;;;;;;;;;4954180;28;20045;-77
2021/09/24 12:19:59;;;;;;;21.90;5.60;;;;;;;;;;4957935;28;20039;-77
2021/09/24 12:22:25;;;;;;;25.33;5.60;;;;;;;;;;4962946;28;20030;-78
2021/09/24 12:24:51;;;;;;;21.10;5.18;;;;;;;;;;4957362;28;20621;-78
2021/09/24 12:27:19;;;;;;;21.92;6.03;;;;;;;;;;4956007;28;20097;-77
2021/09/24 12:29:46;;;;;;;20.70;5.30;;;;;;;;;;4969986;28;20558;-78
2021/09/24 12:32:14;;;;;;;19.92;5.20;;;;;;;;;;4953821;28;20516;-79
2021/09/24 12:34:45;;;;;;;21.88;4.93;;;;;;;;;;4955826;28;20293;-77
2021/09/24 12:37:12;;;;;;;20.35;4.97;;;;;;;;;;4956588;28;20040;-77
2021/09/24 12:39:40;;;;;;;20.77;5.32;;;;;;;;;;4958767;28;20069;-77
2021/09/24 12:42:12;;;;;;;19.52;4.70;;;;;;;;;;4967825;28;20134;-77
2021/09/24 12:45:12;;;;;;;19.92;5.00;;;;;;;;;;4952904;28;20038;-78
2021/09/24 12:47:39;;;;;;;20.25;5.15;;;;;;;;;;4882625;29;20139;-77
2021/09/24 12:50:08;;;;;;;26.50;5.95;;;;;;;;;;4872747;29;20032;-77
2021/09/24 12:52:34;;;;;;;21.45;5.80;;;;;;;;;;4884147;29;20127;-76
2021/09/24 12:55:01;;;;;;;21.27;5.68;;;;;;;;;;4898948;29;20040;-78
2021/09/24 12:57:28;;;;;;;20.58;5.50;;;;;;;;;;4879436;29;20159;-78
2021/09/24 12:59:56;;;;;;;22.27;5.28;;;;;;;;;;4899114;29;20044;-77
2021/09/24 13:02:23;;;;;;;20.90;4.93;;;;;;;;;;4875951;29;21238;-78
2021/09/24 13:04:49;;;;;;;19.55;5.10;;;;;;;;;;4902434;28;20135;-78
2021/09/24 13:07:19;;;;;;;24.60;5.07;;;;;;;;;;4880242;29;20059;-78
2021/09/24 13:09:46;;;;;;;20.23;5.03;;;;;;;;;;4904815;28;20044;-78
2021/09/24 13:12:12;;;;;;;22.92;5.45;;;;;;;;;;4900971;29;20838;-78
2021/09/24 13:14:40;;;;;;;22.27;4.85;;;;;;;;;;4901931;29;20048;-77
2021/09/24 13:17:07;;;;;;;22.92;4.80;;;;;;;;;;4880691;28;20083;-77
2021/09/24 13:19:36;;;;;;;20.13;4.75;;;;;;;;;;4889381;29;20047;-78
2021/09/24 13:22:06;;;;;;;19.00;4.78;;;;;;;;;;4887823;28;20040;-78
2021/09/24 13:24:33;;;;;;;22.52;5.20;;;;;;;;;;4974841;28;20026;-77
2021/09/24 13:26:59;;;;;;;22.00;5.25;;;;;;;;;;4973056;28;20042;-78
2021/09/24 13:29:25;;;;;;;19.38;5.00;;;;;;;;;;4954250;28;20050;-77
2021/09/24 13:31:52;;;;;;;21.90;5.43;;;;;;;;;;4957045;28;20405;-78
2021/09/24 13:34:18;;;;;;;23.02;5.25;;;;;;;;;;4953936;28;20039;-77
2021/09/24 13:36:44;;;;;;;24.10;5.63;;;;;;;;;;4957974;28;20167;-77
2021/09/24 13:39:11;;;;;;;23.17;5.65;;;;;;;;;;4953841;28;20342;-77
2021/09/24 13:41:38;;;;;;;24.15;5.10;;;;;;;;;;4959233;28;20618;-77
2021/09/24 13:44:04;;;;;;;24.05;6.35;;;;;;;;;;4950001;28;20177;-77
2021/09/24 13:46:31;;;;;;;22.08;5.13;;;;;;;;;;4959941;28;20045;-79
2021/09/24 13:48:57;;;;;;;19.95;5.38;;;;;;;;;;4960726;28;20026;-79
2021/09/24 13:51:23;;;;;;;22.38;5.57;;;;;;;;;;4966158;28;20031;-78
2021/09/24 13:53:50;;;;;;;19.80;4.70;;;;;;;;;;4960054;28;20106;-78
2021/09/24 13:56:16;;;;;;;22.40;5.68;;;;;;;;;;4959942;28;20050;-78
2021/09/24 13:58:43;;;;;;;23.35;5.72;;;;;;;;;;4958176;28;20046;-78
2021/09/24 14:01:10;;;;;;;27.15;5.60;;;;;;;;;;4953279;28;20628;-78
2021/09/24 14:03:36;;;;;;;29.58;6.38;;;;;;;;;;4965050;28;20029;-78
2021/09/24 14:06:04;;;;;;;25.67;5.85;;;;;;;;;;4961577;28;21454;-78
2021/09/24 14:08:31;;;;;;;27.52;5.60;;;;;;;;;;4963075;28;20026;-78
2021/09/24 14:10:57;;;;;;;23.73;5.22;;;;;;;;;;4960284;28;20116;-78
2021/09/24 14:13:23;;;;;;;19.83;5.13;;;;;;;;;;4955410;28;20046;-78
2021/09/24 14:15:53;;;;;;;21.73;5.05;;;;;;;;;;4963156;28;20567;-78
2021/09/24 14:18:19;;;;;;;26.50;5.68;;;;;;;;;;4956725;28;20030;-78
2021/09/24 14:20:45;;;;;;;27.10;6.05;;;;;;;;;;4961281;28;20061;-78
2021/09/24 14:23:12;;;;;;;28.63;5.90;;;;;;;;;;4959218;28;20054;-77
2021/09/24 14:25:39;;;;;;;22.30;5.75;;;;;;;;;;4957194;28;20558;-78
2021/09/24 14:28:06;;;;;;;22.73;5.43;;;;;;;;;;4954792;28;20066;-78
2021/09/24 14:30:32;;;;;;;28.13;6.40;;;;;;;;;;4959036;28;20153;-77
2021/09/24 14:32:59;;;;;;;30.25;7.30;;;;;;;;;;4959345;28;20041;-78
2021/09/24 14:35:25;;;;;;;21.88;5.53;;;;;;;;;;4956025;28;20078;-77
2021/09/24 14:37:51;;;;;;;23.15;5.47;;;;;;;;;;4976276;28;20034;-77
2021/09/24 14:40:20;;;;;;;29.05;5.90;;;;;;;;;;4957859;28;20578;-78